sensor_id;sensor_type;location;lat;lon;timestamp;P1;durP1;ratioP1;P2;durP2;ratioP2
38715;SDS011;24833;49.324;8.694;2023-12-04T00:01:16;8.73;;;5.60;;
38715;SDS011;24833;49.324;8.694;2023-12-04T00:03:43;8.75;;;5.85;;
38715;SDS011;24833;49.324;8.694;2023-12-04T00:06:11;10.35;;;6.22;;
38715;SDS011;24833;49.324;8.694;2023-12-04T00:08:39;9.32;;;5.97;;
38715;SDS011;24833;49.324;8.694;2023-12-04T00:11:07;10.13;;;6.78;;
38715;SDS011;24833;49.324;8.694;2023-12-04T00:13:34;8.95;;;5.90;;
38715;SDS011;24833;49.324;8.694;2023-12-04T00:16:01;9.20;;;5.65;;
38715;SDS011;24833;49.324;8.694;2023-12-04T00:18:29;7.90;;;5.80;;
38715;SDS011;24833;49.324;8.694;2023-12-04T00:20:56;7.75;;;5.45;;
38715;SDS011;24833;49.324;8.694;2023-12-04T00:23:23;10.73;;;6.07;;
38715;SDS011;24833;49.324;8.694;2023-12-04T00:25:50;7.95;;;5.78;;
38715;SDS011;24833;49.324;8.694;2023-12-04T00:28:17;9.25;;;6.30;;
38715;SDS011;24833;49.324;8.694;2023-12-04T00:30:44;8.48;;;5.70;;
38715;SDS011;24833;49.324;8.694;2023-12-04T00:33:12;8.23;;;5.65;;
38715;SDS011;24833;49.324;8.694;2023-12-04T00:35:39;6.55;;;4.93;;
38715;SDS011;24833;49.324;8.694;2023-12-04T00:38:06;7.97;;;5.38;;
38715;SDS011;24833;49.324;8.694;2023-12-04T00:40:33;7.50;;;5.55;;
38715;SDS011;24833;49.324;8.694;2023-12-04T00:43:00;8.57;;;5.30;;
38715;SDS011;24833;49.324;8.694;2023-12-04T00:45:27;8.20;;;5.60;;
38715;SDS011;24833;49.324;8.694;2023-12-04T00:47:54;7.45;;;5.40;;
38715;SDS011;24833;49.324;8.694;2023-12-04T00:50:21;8.85;;;5.45;;
38715;SDS011;24833;49.324;8.694;2023-12-04T00:52:49;8.25;;;5.90;;
38715;SDS011;24833;49.324;8.694;2023-12-04T00:55:16;7.78;;;5.55;;
38715;SDS011;24833;49.324;8.694;2023-12-04T00:57:43;7.05;;;4.93;;
38715;SDS011;24833;49.324;8.694;2023-12-04T01:00:10;8.55;;;5.50;;
38715;SDS011;24833;49.324;8.694;2023-12-04T01:02:38;7.78;;;4.82;;
38715;SDS011;24833;49.324;8.694;2023-12-04T01:05:05;7.15;;;4.72;;
38715;SDS011;24833;49.324;8.694;2023-12-04T01:07:32;8.27;;;5.28;;
38715;SDS011;24833;49.324;8.694;2023-12-04T01:09:59;7.30;;;5.20;;
38715;SDS011;24833;49.324;8.694;2023-12-04T01:12:26;9.30;;;5.90;;
38715;SDS011;24833;49.324;8.694;2023-12-04T01:14:53;9.05;;;5.53;;
38715;SDS011;24833;49.324;8.694;2023-12-04T01:17:20;7.15;;;5.20;;
38715;SDS011;24833;49.324;8.694;2023-12-04T01:19:49;6.68;;;4.93;;
38715;SDS011;24833;49.324;8.694;2023-12-04T01:22:16;8.82;;;5.47;;
38715;SDS011;24833;49.324;8.694;2023-12-04T01:24:43;6.85;;;5.22;;
38715;SDS011;24833;49.324;8.694;2023-12-04T01:27:10;7.65;;;4.88;;
38715;SDS011;24833;49.324;8.694;2023-12-04T01:29:37;7.07;;;4.88;;
38715;SDS011;24833;49.324;8.694;2023-12-04T01:32:04;7.82;;;4.93;;
38715;SDS011;24833;49.324;8.694;2023-12-04T01:34:31;9.65;;;5.07;;
38715;SDS011;24833;49.324;8.694;2023-12-04T01:36:59;8.20;;;5.20;;
38715;SDS011;24833;49.324;8.694;2023-12-04T01:39:26;7.43;;;5.05;;
38715;SDS011;24833;49.324;8.694;2023-12-04T01:41:53;7.45;;;5.30;;
38715;SDS011;24833;49.324;8.694;2023-12-04T01:44:20;7.28;;;5.38;;
38715;SDS011;24833;49.324;8.694;2023-12-04T01:46:48;7.60;;;5.00;;
38715;SDS011;24833;49.324;8.694;2023-12-04T01:49:16;8.50;;;4.90;;
38715;SDS011;24833;49.324;8.694;2023-12-04T01:51:43;7.97;;;5.25;;
38715;SDS011;24833;49.324;8.694;2023-12-04T01:54:12;7.97;;;5.57;;
38715;SDS011;24833;49.324;8.694;2023-12-04T01:56:39;8.10;;;5.38;;
38715;SDS011;24833;49.324;8.694;2023-12-04T01:59:06;7.70;;;5.28;;
38715;SDS011;24833;49.324;8.694;2023-12-04T02:01:34;8.02;;;5.53;;
38715;SDS011;24833;49.324;8.694;2023-12-04T02:04:03;9.20;;;5.30;;
38715;SDS011;24833;49.324;8.694;2023-12-04T02:06:30;8.35;;;5.43;;
38715;SDS011;24833;49.324;8.694;2023-12-04T02:08:58;9.13;;;5.63;;
38715;SDS011;24833;49.324;8.694;2023-12-04T02:11:25;9.80;;;5.22;;
38715;SDS011;24833;49.324;8.694;2023-12-04T02:13:52;8.15;;;5.53;;
38715;SDS011;24833;49.324;8.694;2023-12-04T02:16:19;8.55;;;5.32;;
38715;SDS011;24833;49.324;8.694;2023-12-04T02:18:53;8.40;;;5.35;;
38715;SDS011;24833;49.324;8.694;2023-12-04T02:21:20;9.07;;;5.05;;
38715;SDS011;24833;49.324;8.694;2023-12-04T02:23:48;7.28;;;5.65;;
38715;SDS011;24833;49.324;8.694;2023-12-04T02:26:20;8.27;;;5.38;;
38715;SDS011;24833;49.324;8.694;2023-12-04T02:28:55;7.97;;;4.65;;
38715;SDS011;24833;49.324;8.694;2023-12-04T02:31:27;9.13;;;5.15;;
38715;SDS011;24833;49.324;8.694;2023-12-04T02:33:57;7.47;;;5.18;;
38715;SDS011;24833;49.324;8.694;2023-12-04T02:36:27;7.07;;;4.82;;
38715;SDS011;24833;49.324;8.694;2023-12-04T02:38:55;8.02;;;5.53;;
38715;SDS011;24833;49.324;8.694;2023-12-04T02:41:22;7.78;;;4.88;;
38715;SDS011;24833;49.324;8.694;2023-12-04T02:43:50;8.48;;;5.13;;
38715;SDS011;24833;49.324;8.694;2023-12-04T02:46:17;10.07;;;5.45;;
38715;SDS011;24833;49.324;8.694;2023-12-04T02:48:44;8.85;;;5.13;;
38715;SDS011;24833;49.324;8.694;2023-12-04T02:51:12;8.73;;;5.35;;
38715;SDS011;24833;49.324;8.694;2023-12-04T02:53:39;8.00;;;4.80;;
38715;SDS011;24833;49.324;8.694;2023-12-04T02:56:06;9.27;;;5.55;;
38715;SDS011;24833;49.324;8.694;2023-12-04T02:58:33;8.90;;;5.53;;
38715;SDS011;24833;49.324;8.694;2023-12-04T03:01:01;9.38;;;5.72;;
38715;SDS011;24833;49.324;8.694;2023-12-04T03:03:28;8.45;;;5.18;;
38715;SDS011;24833;49.324;8.694;2023-12-04T03:05:55;6.43;;;4.57;;
38715;SDS011;24833;49.324;8.694;2023-12-04T03:08:22;8.25;;;5.72;;
38715;SDS011;24833;49.324;8.694;2023-12-04T03:10:49;7.43;;;4.82;;
38715;SDS011;24833;49.324;8.694;2023-12-04T03:13:16;8.23;;;5.38;;
38715;SDS011;24833;49.324;8.694;2023-12-04T03:15:43;7.57;;;5.13;;
38715;SDS011;24833;49.324;8.694;2023-12-04T03:18:10;8.13;;;5.00;;
38715;SDS011;24833;49.324;8.694;2023-12-04T03:20:38;8.98;;;5.55;;
38715;SDS011;24833;49.324;8.694;2023-12-04T03:23:05;8.75;;;5.93;;
38715;SDS011;24833;49.324;8.694;2023-12-04T03:25:32;10.88;;;5.97;;
38715;SDS011;24833;49.324;8.694;2023-12-04T03:28:00;8.43;;;6.22;;
38715;SDS011;24833;49.324;8.694;2023-12-04T03:30:27;9.20;;;6.00;;
38715;SDS011;24833;49.324;8.694;2023-12-04T03:32:54;8.57;;;5.90;;
38715;SDS011;24833;49.324;8.694;2023-12-04T03:35:21;9.63;;;6.25;;
38715;SDS011;24833;49.324;8.694;2023-12-04T03:37:48;9.23;;;5.53;;
38715;SDS011;24833;49.324;8.694;2023-12-04T03:40:19;5.75;;;4.57;;
38715;SDS011;24833;49.324;8.694;2023-12-04T03:42:46;6.80;;;5.00;;
38715;SDS011;24833;49.324;8.694;2023-12-04T03:45:13;10.13;;;5.93;;
38715;SDS011;24833;49.324;8.694;2023-12-04T03:47:40;8.80;;;5.57;;
38715;SDS011;24833;49.324;8.694;2023-12-04T03:50:07;11.02;;;5.47;;
38715;SDS011;24833;49.324;8.694;2023-12-04T03:52:34;9.25;;;6.07;;
38715;SDS011;24833;49.324;8.694;2023-12-04T03:55:01;9.30;;;6.18;;
38715;SDS011;24833;49.324;8.694;2023-12-04T03:57:29;9.13;;;6.15;;
38715;SDS011;24833;49.324;8.694;2023-12-04T03:59:56;7.88;;;5.55;;
38715;SDS011;24833;49.324;8.694;2023-12-04T04:02:23;9.05;;;5.22;;
38715;SDS011;24833;49.324;8.694;2023-12-04T04:04:51;7.70;;;5.60;;
38715;SDS011;24833;49.324;8.694;2023-12-04T04:07:18;8.75;;;5.80;;
38715;SDS011;24833;49.324;8.694;2023-12-04T04:09:46;10.18;;;6.43;;
38715;SDS011;24833;49.324;8.694;2023-12-04T04:12:13;7.53;;;5.38;;
38715;SDS011;24833;49.324;8.694;2023-12-04T04:14:40;7.60;;;5.82;;
38715;SDS011;24833;49.324;8.694;2023-12-04T04:17:07;8.35;;;5.80;;
38715;SDS011;24833;49.324;8.694;2023-12-04T04:19:34;10.55;;;6.20;;
38715;SDS011;24833;49.324;8.694;2023-12-04T04:22:01;7.45;;;5.40;;
38715;SDS011;24833;49.324;8.694;2023-12-04T04:24:28;10.63;;;6.75;;
38715;SDS011;24833;49.324;8.694;2023-12-04T04:26:56;9.52;;;5.97;;
38715;SDS011;24833;49.324;8.694;2023-12-04T04:29:23;8.20;;;5.43;;
38715;SDS011;24833;49.324;8.694;2023-12-04T04:31:50;7.28;;;5.65;;
38715;SDS011;24833;49.324;8.694;2023-12-04T04:34:17;7.72;;;5.55;;
38715;SDS011;24833;49.324;8.694;2023-12-04T04:36:46;8.40;;;5.80;;
38715;SDS011;24833;49.324;8.694;2023-12-04T04:39:13;8.85;;;5.63;;
38715;SDS011;24833;49.324;8.694;2023-12-04T04:41:40;7.40;;;4.85;;
38715;SDS011;24833;49.324;8.694;2023-12-04T04:44:07;9.77;;;5.20;;
38715;SDS011;24833;49.324;8.694;2023-12-04T04:46:34;8.80;;;5.70;;
38715;SDS011;24833;49.324;8.694;2023-12-04T04:49:01;6.90;;;4.63;;
38715;SDS011;24833;49.324;8.694;2023-12-04T04:51:33;7.93;;;5.45;;
38715;SDS011;24833;49.324;8.694;2023-12-04T04:54:01;8.02;;;5.10;;
38715;SDS011;24833;49.324;8.694;2023-12-04T04:56:29;7.00;;;4.88;;
38715;SDS011;24833;49.324;8.694;2023-12-04T04:58:56;8.07;;;5.65;;
38715;SDS011;24833;49.324;8.694;2023-12-04T05:01:23;8.88;;;5.25;;
38715;SDS011;24833;49.324;8.694;2023-12-04T05:03:50;6.97;;;4.93;;
38715;SDS011;24833;49.324;8.694;2023-12-04T05:06:18;6.13;;;4.70;;
38715;SDS011;24833;49.324;8.694;2023-12-04T05:08:45;6.13;;;4.53;;
38715;SDS011;24833;49.324;8.694;2023-12-04T05:11:14;7.32;;;5.22;;
38715;SDS011;24833;49.324;8.694;2023-12-04T05:13:41;6.43;;;4.65;;
38715;SDS011;24833;49.324;8.694;2023-12-04T05:16:09;7.75;;;4.60;;
38715;SDS011;24833;49.324;8.694;2023-12-04T05:18:37;7.80;;;4.35;;
38715;SDS011;24833;49.324;8.694;2023-12-04T05:21:11;6.82;;;4.30;;
38715;SDS011;24833;49.324;8.694;2023-12-04T05:23:38;6.35;;;4.57;;
38715;SDS011;24833;49.324;8.694;2023-12-04T05:26:06;6.18;;;4.90;;
38715;SDS011;24833;49.324;8.694;2023-12-04T05:28:34;7.65;;;4.85;;
38715;SDS011;24833;49.324;8.694;2023-12-04T05:31:01;7.20;;;4.93;;
38715;SDS011;24833;49.324;8.694;2023-12-04T05:33:28;7.40;;;5.00;;
38715;SDS011;24833;49.324;8.694;2023-12-04T05:35:56;6.97;;;4.57;;
38715;SDS011;24833;49.324;8.694;2023-12-04T05:38:23;6.60;;;4.45;;
38715;SDS011;24833;49.324;8.694;2023-12-04T05:40:50;7.25;;;4.93;;
38715;SDS011;24833;49.324;8.694;2023-12-04T05:43:17;6.78;;;4.75;;
38715;SDS011;24833;49.324;8.694;2023-12-04T05:45:45;6.43;;;4.63;;
38715;SDS011;24833;49.324;8.694;2023-12-04T05:48:14;5.45;;;3.78;;
38715;SDS011;24833;49.324;8.694;2023-12-04T05:50:41;6.88;;;4.65;;
38715;SDS011;24833;49.324;8.694;2023-12-04T05:53:08;6.35;;;4.13;;
38715;SDS011;24833;49.324;8.694;2023-12-04T05:55:35;5.85;;;4.20;;
38715;SDS011;24833;49.324;8.694;2023-12-04T05:58:02;5.32;;;4.10;;
38715;SDS011;24833;49.324;8.694;2023-12-04T06:00:29;6.00;;;3.88;;
38715;SDS011;24833;49.324;8.694;2023-12-04T06:02:56;5.50;;;4.05;;
38715;SDS011;24833;49.324;8.694;2023-12-04T06:05:23;5.35;;;4.00;;
38715;SDS011;24833;49.324;8.694;2023-12-04T06:07:51;5.47;;;3.65;;
38715;SDS011;24833;49.324;8.694;2023-12-04T06:10:18;4.28;;;3.45;;
38715;SDS011;24833;49.324;8.694;2023-12-04T06:12:45;5.80;;;3.80;;
38715;SDS011;24833;49.324;8.694;2023-12-04T06:15:12;7.60;;;4.63;;
38715;SDS011;24833;49.324;8.694;2023-12-04T06:17:39;6.25;;;4.10;;
38715;SDS011;24833;49.324;8.694;2023-12-04T06:20:06;6.90;;;4.38;;
38715;SDS011;24833;49.324;8.694;2023-12-04T06:22:34;6.07;;;3.65;;
38715;SDS011;24833;49.324;8.694;2023-12-04T06:25:01;4.75;;;3.65;;
38715;SDS011;24833;49.324;8.694;2023-12-04T06:27:29;6.70;;;4.72;;
38715;SDS011;24833;49.324;8.694;2023-12-04T06:29:57;6.00;;;4.20;;
38715;SDS011;24833;49.324;8.694;2023-12-04T06:32:24;5.60;;;4.03;;
38715;SDS011;24833;49.324;8.694;2023-12-04T06:34:52;5.93;;;4.07;;
38715;SDS011;24833;49.324;8.694;2023-12-04T06:37:20;5.75;;;4.35;;
38715;SDS011;24833;49.324;8.694;2023-12-04T06:39:48;5.70;;;4.10;;
38715;SDS011;24833;49.324;8.694;2023-12-04T06:42:16;6.15;;;4.05;;
38715;SDS011;24833;49.324;8.694;2023-12-04T06:44:43;5.28;;;4.03;;
38715;SDS011;24833;49.324;8.694;2023-12-04T06:47:12;6.60;;;4.07;;
38715;SDS011;24833;49.324;8.694;2023-12-04T06:49:43;7.35;;;4.68;;
38715;SDS011;24833;49.324;8.694;2023-12-04T06:52:10;5.57;;;4.07;;
38715;SDS011;24833;49.324;8.694;2023-12-04T06:54:37;6.53;;;4.13;;
38715;SDS011;24833;49.324;8.694;2023-12-04T06:57:04;5.85;;;3.92;;
38715;SDS011;24833;49.324;8.694;2023-12-04T06:59:31;6.00;;;4.13;;
38715;SDS011;24833;49.324;8.694;2023-12-04T07:01:58;5.53;;;3.88;;
38715;SDS011;24833;49.324;8.694;2023-12-04T07:04:26;6.78;;;4.00;;
38715;SDS011;24833;49.324;8.694;2023-12-04T07:06:53;5.72;;;4.20;;
38715;SDS011;24833;49.324;8.694;2023-12-04T07:09:20;5.85;;;4.18;;
38715;SDS011;24833;49.324;8.694;2023-12-04T07:11:47;5.47;;;4.30;;
38715;SDS011;24833;49.324;8.694;2023-12-04T07:14:14;5.50;;;3.88;;
38715;SDS011;24833;49.324;8.694;2023-12-04T07:16:42;5.07;;;3.78;;
38715;SDS011;24833;49.324;8.694;2023-12-04T07:19:09;6.32;;;4.25;;
38715;SDS011;24833;49.324;8.694;2023-12-04T07:21:37;5.30;;;4.15;;
38715;SDS011;24833;49.324;8.694;2023-12-04T07:24:05;4.80;;;3.67;;
38715;SDS011;24833;49.324;8.694;2023-12-04T07:26:33;5.63;;;4.20;;
38715;SDS011;24833;49.324;8.694;2023-12-04T07:29:01;4.88;;;3.80;;
38715;SDS011;24833;49.324;8.694;2023-12-04T07:31:29;5.63;;;3.42;;
38715;SDS011;24833;49.324;8.694;2023-12-04T07:33:57;5.07;;;3.70;;
38715;SDS011;24833;49.324;8.694;2023-12-04T07:36:27;5.93;;;4.05;;
38715;SDS011;24833;49.324;8.694;2023-12-04T07:38:55;5.78;;;4.25;;
38715;SDS011;24833;49.324;8.694;2023-12-04T07:41:22;6.07;;;3.60;;
38715;SDS011;24833;49.324;8.694;2023-12-04T07:43:49;6.28;;;4.40;;
38715;SDS011;24833;49.324;8.694;2023-12-04T07:46:16;5.25;;;4.15;;
38715;SDS011;24833;49.324;8.694;2023-12-04T07:48:43;4.25;;;3.53;;
38715;SDS011;24833;49.324;8.694;2023-12-04T07:51:10;5.63;;;3.95;;
38715;SDS011;24833;49.324;8.694;2023-12-04T07:53:37;5.88;;;4.18;;
38715;SDS011;24833;49.324;8.694;2023-12-04T07:56:04;5.40;;;3.70;;
38715;SDS011;24833;49.324;8.694;2023-12-04T07:58:32;5.60;;;3.60;;
38715;SDS011;24833;49.324;8.694;2023-12-04T08:00:59;5.28;;;4.28;;
38715;SDS011;24833;49.324;8.694;2023-12-04T08:03:27;6.10;;;4.07;;
38715;SDS011;24833;49.324;8.694;2023-12-04T08:05:54;5.53;;;3.78;;
38715;SDS011;24833;49.324;8.694;2023-12-04T08:08:21;5.18;;;3.40;;
38715;SDS011;24833;49.324;8.694;2023-12-04T08:10:48;4.68;;;3.17;;
38715;SDS011;24833;49.324;8.694;2023-12-04T08:13:15;4.40;;;3.55;;
38715;SDS011;24833;49.324;8.694;2023-12-04T08:15:43;6.20;;;3.67;;
38715;SDS011;24833;49.324;8.694;2023-12-04T08:18:11;4.32;;;3.45;;
38715;SDS011;24833;49.324;8.694;2023-12-04T08:20:38;4.70;;;3.38;;
38715;SDS011;24833;49.324;8.694;2023-12-04T08:23:07;6.43;;;3.67;;
38715;SDS011;24833;49.324;8.694;2023-12-04T08:25:35;4.47;;;3.38;;
38715;SDS011;24833;49.324;8.694;2023-12-04T08:30:35;3.90;;;3.08;;
38715;SDS011;24833;49.324;8.694;2023-12-04T08:33:02;6.13;;;4.05;;
38715;SDS011;24833;49.324;8.694;2023-12-04T08:35:29;4.35;;;3.67;;
38715;SDS011;24833;49.324;8.694;2023-12-04T08:37:56;6.50;;;4.25;;
38715;SDS011;24833;49.324;8.694;2023-12-04T08:40:23;5.80;;;4.05;;
38715;SDS011;24833;49.324;8.694;2023-12-04T08:42:51;5.90;;;3.90;;
38715;SDS011;24833;49.324;8.694;2023-12-04T08:45:18;6.00;;;3.80;;
38715;SDS011;24833;49.324;8.694;2023-12-04T08:47:45;5.82;;;4.55;;
38715;SDS011;24833;49.324;8.694;2023-12-04T08:50:12;6.85;;;4.05;;
38715;SDS011;24833;49.324;8.694;2023-12-04T08:52:40;6.03;;;4.10;;
38715;SDS011;24833;49.324;8.694;2023-12-04T08:55:09;6.60;;;4.43;;
38715;SDS011;24833;49.324;8.694;2023-12-04T08:57:37;6.07;;;4.10;;
38715;SDS011;24833;49.324;8.694;2023-12-04T09:00:04;5.70;;;4.22;;
38715;SDS011;24833;49.324;8.694;2023-12-04T09:02:34;5.55;;;3.78;;
38715;SDS011;24833;49.324;8.694;2023-12-04T09:05:09;5.45;;;3.85;;
38715;SDS011;24833;49.324;8.694;2023-12-04T09:07:36;5.10;;;3.65;;
38715;SDS011;24833;49.324;8.694;2023-12-04T09:10:06;6.80;;;4.50;;
38715;SDS011;24833;49.324;8.694;2023-12-04T09:12:45;7.20;;;4.18;;
38715;SDS011;24833;49.324;8.694;2023-12-04T09:15:12;5.72;;;4.05;;
38715;SDS011;24833;49.324;8.694;2023-12-04T09:17:40;7.63;;;4.45;;
38715;SDS011;24833;49.324;8.694;2023-12-04T09:20:08;7.40;;;4.05;;
38715;SDS011;24833;49.324;8.694;2023-12-04T09:22:35;6.28;;;4.00;;
38715;SDS011;24833;49.324;8.694;2023-12-04T09:25:09;5.93;;;3.85;;
38715;SDS011;24833;49.324;8.694;2023-12-04T09:27:36;5.75;;;3.65;;
38715;SDS011;24833;49.324;8.694;2023-12-04T09:30:04;5.75;;;3.97;;
38715;SDS011;24833;49.324;8.694;2023-12-04T09:32:32;7.90;;;4.07;;
38715;SDS011;24833;49.324;8.694;2023-12-04T09:34:59;5.25;;;3.67;;
38715;SDS011;24833;49.324;8.694;2023-12-04T09:37:26;7.13;;;4.55;;
38715;SDS011;24833;49.324;8.694;2023-12-04T09:39:53;4.90;;;3.90;;
38715;SDS011;24833;49.324;8.694;2023-12-04T09:42:20;5.07;;;3.65;;
38715;SDS011;24833;49.324;8.694;2023-12-04T09:44:48;6.03;;;4.30;;
38715;SDS011;24833;49.324;8.694;2023-12-04T09:47:20;6.57;;;4.15;;
38715;SDS011;24833;49.324;8.694;2023-12-04T09:49:49;5.82;;;3.80;;
38715;SDS011;24833;49.324;8.694;2023-12-04T09:54:47;5.65;;;4.15;;
38715;SDS011;24833;49.324;8.694;2023-12-04T09:57:14;4.78;;;4.00;;
38715;SDS011;24833;49.324;8.694;2023-12-04T09:59:42;6.95;;;4.57;;
38715;SDS011;24833;49.324;8.694;2023-12-04T10:02:11;5.07;;;3.88;;
38715;SDS011;24833;49.324;8.694;2023-12-04T10:04:39;7.03;;;4.38;;
38715;SDS011;24833;49.324;8.694;2023-12-04T10:07:08;7.10;;;4.80;;
38715;SDS011;24833;49.324;8.694;2023-12-04T10:09:35;5.80;;;3.83;;
38715;SDS011;24833;49.324;8.694;2023-12-04T10:12:03;6.45;;;4.47;;
38715;SDS011;24833;49.324;8.694;2023-12-04T10:14:32;7.10;;;4.82;;
38715;SDS011;24833;49.324;8.694;2023-12-04T10:16:59;4.90;;;3.83;;
38715;SDS011;24833;49.324;8.694;2023-12-04T10:19:39;5.27;;;3.90;;
38715;SDS011;24833;49.324;8.694;2023-12-04T10:22:07;5.60;;;3.45;;
38715;SDS011;24833;49.324;8.694;2023-12-04T10:24:38;6.47;;;3.83;;
38715;SDS011;24833;49.324;8.694;2023-12-04T10:27:06;5.75;;;3.38;;
38715;SDS011;24833;49.324;8.694;2023-12-04T10:29:46;5.28;;;3.35;;
38715;SDS011;24833;49.324;8.694;2023-12-04T10:32:20;3.22;;;2.60;;
38715;SDS011;24833;49.324;8.694;2023-12-04T10:34:48;4.32;;;3.30;;
38715;SDS011;24833;49.324;8.694;2023-12-04T10:37:15;6.22;;;4.13;;
38715;SDS011;24833;49.324;8.694;2023-12-04T10:39:47;5.93;;;3.85;;
38715;SDS011;24833;49.324;8.694;2023-12-04T10:42:25;5.93;;;4.05;;
38715;SDS011;24833;49.324;8.694;2023-12-04T10:44:55;5.40;;;4.10;;
38715;SDS011;24833;49.324;8.694;2023-12-04T10:47:24;5.28;;;4.35;;
38715;SDS011;24833;49.324;8.694;2023-12-04T10:49:52;6.63;;;4.10;;
38715;SDS011;24833;49.324;8.694;2023-12-04T10:52:19;5.47;;;3.78;;
38715;SDS011;24833;49.324;8.694;2023-12-04T10:54:48;5.35;;;4.15;;
38715;SDS011;24833;49.324;8.694;2023-12-04T10:57:31;4.38;;;3.83;;
38715;SDS011;24833;49.324;8.694;2023-12-04T11:00:05;3.78;;;3.40;;
38715;SDS011;24833;49.324;8.694;2023-12-04T11:02:35;5.18;;;4.05;;
38715;SDS011;24833;49.324;8.694;2023-12-04T11:05:14;4.32;;;3.40;;
38715;SDS011;24833;49.324;8.694;2023-12-04T11:07:48;5.70;;;3.65;;
38715;SDS011;24833;49.324;8.694;2023-12-04T11:10:45;4.35;;;2.88;;
38715;SDS011;24833;49.324;8.694;2023-12-04T11:13:28;6.40;;;3.72;;
38715;SDS011;24833;49.324;8.694;2023-12-04T11:18:36;5.90;;;4.20;;
38715;SDS011;24833;49.324;8.694;2023-12-04T11:21:07;6.65;;;3.85;;
38715;SDS011;24833;49.324;8.694;2023-12-04T11:23:36;8.25;;;4.50;;
38715;SDS011;24833;49.324;8.694;2023-12-04T11:26:04;5.93;;;3.85;;
38715;SDS011;24833;49.324;8.694;2023-12-04T11:28:34;5.40;;;4.05;;
38715;SDS011;24833;49.324;8.694;2023-12-04T11:31:04;5.80;;;3.97;;
38715;SDS011;24833;49.324;8.694;2023-12-04T11:33:36;4.97;;;3.60;;
38715;SDS011;24833;49.324;8.694;2023-12-04T11:36:08;5.90;;;3.75;;
38715;SDS011;24833;49.324;8.694;2023-12-04T11:38:43;5.22;;;3.70;;
38715;SDS011;24833;49.324;8.694;2023-12-04T11:41:22;5.90;;;4.43;;
38715;SDS011;24833;49.324;8.694;2023-12-04T11:43:56;5.82;;;4.25;;
38715;SDS011;24833;49.324;8.694;2023-12-04T11:46:28;5.13;;;3.72;;
38715;SDS011;24833;49.324;8.694;2023-12-04T11:49:25;6.90;;;4.03;;
38715;SDS011;24833;49.324;8.694;2023-12-04T11:51:57;4.68;;;3.60;;
38715;SDS011;24833;49.324;8.694;2023-12-04T11:57:40;7.00;;;4.03;;
38715;SDS011;24833;49.324;8.694;2023-12-04T12:00:20;6.22;;;4.10;;
38715;SDS011;24833;49.324;8.694;2023-12-04T12:05:39;5.05;;;3.78;;
38715;SDS011;24833;49.324;8.694;2023-12-04T12:08:08;5.35;;;3.97;;
38715;SDS011;24833;49.324;8.694;2023-12-04T12:10:35;7.72;;;4.53;;
38715;SDS011;24833;49.324;8.694;2023-12-04T12:13:02;6.93;;;4.85;;
38715;SDS011;24833;49.324;8.694;2023-12-04T12:15:31;6.47;;;4.05;;
38715;SDS011;24833;49.324;8.694;2023-12-04T12:18:00;7.13;;;5.13;;
38715;SDS011;24833;49.324;8.694;2023-12-04T12:20:27;6.43;;;5.03;;
38715;SDS011;24833;49.324;8.694;2023-12-04T12:22:54;6.82;;;4.95;;
38715;SDS011;24833;49.324;8.694;2023-12-04T12:25:22;5.97;;;4.20;;
38715;SDS011;24833;49.324;8.694;2023-12-04T12:27:51;7.78;;;5.28;;
38715;SDS011;24833;49.324;8.694;2023-12-04T12:30:18;8.65;;;4.68;;
38715;SDS011;24833;49.324;8.694;2023-12-04T12:32:46;6.78;;;4.65;;
38715;SDS011;24833;49.324;8.694;2023-12-04T12:35:13;7.40;;;5.00;;
38715;SDS011;24833;49.324;8.694;2023-12-04T12:37:40;10.07;;;5.50;;
38715;SDS011;24833;49.324;8.694;2023-12-04T12:40:09;8.18;;;5.68;;
38715;SDS011;24833;49.324;8.694;2023-12-04T12:42:36;9.10;;;5.95;;
38715;SDS011;24833;49.324;8.694;2023-12-04T12:45:10;7.05;;;5.28;;
38715;SDS011;24833;49.324;8.694;2023-12-04T12:47:40;7.57;;;5.40;;
38715;SDS011;24833;49.324;8.694;2023-12-04T12:50:09;9.13;;;5.75;;
38715;SDS011;24833;49.324;8.694;2023-12-04T12:52:41;7.68;;;5.55;;
38715;SDS011;24833;49.324;8.694;2023-12-04T12:55:10;8.48;;;5.88;;
38715;SDS011;24833;49.324;8.694;2023-12-04T12:57:37;8.07;;;5.93;;
38715;SDS011;24833;49.324;8.694;2023-12-04T13:00:04;7.95;;;5.63;;
38715;SDS011;24833;49.324;8.694;2023-12-04T13:02:34;9.25;;;5.63;;
38715;SDS011;24833;49.324;8.694;2023-12-04T13:05:04;7.80;;;5.43;;
38715;SDS011;24833;49.324;8.694;2023-12-04T13:07:33;9.48;;;5.80;;
38715;SDS011;24833;49.324;8.694;2023-12-04T13:10:00;9.68;;;6.13;;
38715;SDS011;24833;49.324;8.694;2023-12-04T13:12:27;7.82;;;5.50;;
38715;SDS011;24833;49.324;8.694;2023-12-04T13:14:54;7.78;;;5.80;;
38715;SDS011;24833;49.324;8.694;2023-12-04T13:17:21;7.93;;;5.50;;
38715;SDS011;24833;49.324;8.694;2023-12-04T13:19:49;7.00;;;5.32;;
38715;SDS011;24833;49.324;8.694;2023-12-04T13:22:16;8.00;;;5.88;;
38715;SDS011;24833;49.324;8.694;2023-12-04T13:24:43;6.68;;;5.55;;
38715;SDS011;24833;49.324;8.694;2023-12-04T13:27:11;8.00;;;5.28;;
38715;SDS011;24833;49.324;8.694;2023-12-04T13:29:38;9.50;;;5.30;;
38715;SDS011;24833;49.324;8.694;2023-12-04T13:32:05;6.88;;;5.30;;
38715;SDS011;24833;49.324;8.694;2023-12-04T13:34:32;7.72;;;5.93;;
38715;SDS011;24833;49.324;8.694;2023-12-04T13:36:59;7.38;;;5.22;;
38715;SDS011;24833;49.324;8.694;2023-12-04T13:39:26;7.30;;;5.47;;
38715;SDS011;24833;49.324;8.694;2023-12-04T13:42:05;7.82;;;5.30;;
38715;SDS011;24833;49.324;8.694;2023-12-04T13:44:51;9.02;;;5.50;;
38715;SDS011;24833;49.324;8.694;2023-12-04T13:47:18;8.73;;;5.65;;
38715;SDS011;24833;49.324;8.694;2023-12-04T13:49:45;6.90;;;4.78;;
38715;SDS011;24833;49.324;8.694;2023-12-04T13:52:13;7.65;;;5.75;;
38715;SDS011;24833;49.324;8.694;2023-12-04T13:54:40;6.35;;;5.15;;
38715;SDS011;24833;49.324;8.694;2023-12-04T13:57:13;8.10;;;5.82;;
38715;SDS011;24833;49.324;8.694;2023-12-04T13:59:54;9.10;;;6.47;;
38715;SDS011;24833;49.324;8.694;2023-12-04T14:02:24;8.32;;;5.28;;
38715;SDS011;24833;49.324;8.694;2023-12-04T14:04:52;8.27;;;5.38;;
38715;SDS011;24833;49.324;8.694;2023-12-04T14:07:20;7.47;;;5.22;;
38715;SDS011;24833;49.324;8.694;2023-12-04T14:09:51;4.60;;;4.05;;
38715;SDS011;24833;49.324;8.694;2023-12-04T14:12:19;6.28;;;4.40;;
38715;SDS011;24833;49.324;8.694;2023-12-04T14:14:47;6.65;;;4.32;;
38715;SDS011;24833;49.324;8.694;2023-12-04T14:17:14;6.88;;;4.82;;
38715;SDS011;24833;49.324;8.694;2023-12-04T14:19:42;6.78;;;4.75;;
38715;SDS011;24833;49.324;8.694;2023-12-04T14:22:09;9.38;;;5.90;;
38715;SDS011;24833;49.324;8.694;2023-12-04T14:24:36;7.45;;;5.90;;
38715;SDS011;24833;49.324;8.694;2023-12-04T14:27:06;9.48;;;5.85;;
38715;SDS011;24833;49.324;8.694;2023-12-04T14:29:34;7.22;;;5.38;;
38715;SDS011;24833;49.324;8.694;2023-12-04T14:32:01;7.93;;;5.88;;
38715;SDS011;24833;49.324;8.694;2023-12-04T14:34:28;8.05;;;5.80;;
38715;SDS011;24833;49.324;8.694;2023-12-04T14:36:56;10.27;;;6.57;;
38715;SDS011;24833;49.324;8.694;2023-12-04T14:39:24;7.90;;;5.97;;
38715;SDS011;24833;49.324;8.694;2023-12-04T14:41:51;8.57;;;6.10;;
38715;SDS011;24833;49.324;8.694;2023-12-04T14:44:23;11.23;;;6.57;;
38715;SDS011;24833;49.324;8.694;2023-12-04T14:46:51;10.02;;;6.15;;
38715;SDS011;24833;49.324;8.694;2023-12-04T14:49:18;9.68;;;7.07;;
38715;SDS011;24833;49.324;8.694;2023-12-04T14:51:45;8.27;;;5.47;;
38715;SDS011;24833;49.324;8.694;2023-12-04T14:54:14;7.22;;;5.22;;
38715;SDS011;24833;49.324;8.694;2023-12-04T14:56:49;7.63;;;5.05;;
38715;SDS011;24833;49.324;8.694;2023-12-04T14:59:35;8.05;;;6.00;;
38715;SDS011;24833;49.324;8.694;2023-12-04T15:02:27;7.72;;;5.35;;
38715;SDS011;24833;49.324;8.694;2023-12-04T15:05:27;7.55;;;5.22;;
38715;SDS011;24833;49.324;8.694;2023-12-04T15:08:14;8.23;;;6.05;;
38715;SDS011;24833;49.324;8.694;2023-12-04T15:11:03;9.35;;;5.50;;